Time;durP1;ratioP1;P1;durP2;ratioP2;P2;SDS_P1;SDS_P2;PMS_P1;PMS_P2;Temp;Humidity;BMP_temperature;BMP_pressure;BME280_temperature;BME280_humidity;BME280_pressure;Samples;Min_cycle;Max_cycle;Signal;HPM_P1;HPM_P2
2020/12/20 00:00:35;;;;;;;8.07;5.80;;;4.60;93.90;;;;;;4963897;28;20190;-77
2020/12/20 00:03:01;;;;;;;7.37;4.23;;;4.60;93.90;;;;;;4951536;29;20203;-77
2020/12/20 00:05:27;;;;;;;7.70;4.87;;;4.60;93.90;;;;;;4956398;28;20187;-78
2020/12/20 00:07:56;;;;;;;8.50;4.93;;;4.60;94.00;;;;;;4970083;28;20206;-77
2020/12/20 00:10:23;;;;;;;8.37;5.00;;;4.60;94.00;;;;;;4967122;28;20260;-77
2020/12/20 00:12:49;;;;;;;8.27;5.37;;;4.60;94.00;;;;;;4971388;28;21013;-77
2020/12/20 00:15:18;;;;;;;7.37;4.80;;;4.60;94.00;;;;;;4962740;28;20210;-78
2020/12/20 00:17:49;;;;;;;6.33;5.70;;;4.60;94.00;;;;;;4953777;28;20199;-77
2020/12/20 00:20:16;;;;;;;8.47;4.70;;;4.60;94.10;;;;;;4955287;28;20187;-77
2020/12/20 00:22:41;;;;;;;10.90;6.43;;;4.60;94.10;;;;;;4971962;28;20197;-77
2020/12/20 00:25:07;;;;;;;8.57;5.07;;;4.60;94.10;;;;;;4970103;28;20951;-77
2020/12/20 00:27:33;;;;;;;8.20;4.97;;;4.60;94.10;;;;;;4959865;28;20213;-76
2020/12/20 00:29:59;;;;;;;5.97;4.90;;;4.60;94.10;;;;;;4966025;28;20190;-77
2020/12/20 00:32:24;;;;;;;8.40;5.10;;;4.60;94.20;;;;;;4971509;28;20186;-77
2020/12/20 00:34:50;;;;;;;7.87;4.80;;;4.60;94.20;;;;;;4971151;28;20186;-76
2020/12/20 00:37:16;;;;;;;8.43;5.07;;;4.50;94.40;;;;;;4967809;28;20187;-77
2020/12/20 00:39:42;;;;;;;5.83;5.13;;;4.50;94.40;;;;;;4969882;28;20854;-77
2020/12/20 00:42:08;;;;;;;5.37;4.60;;;4.50;94.40;;;;;;4971874;28;20240;-77
2020/12/20 00:44:34;;;;;;;8.27;5.23;;;4.50;94.40;;;;;;4970566;28;20191;-77
2020/12/20 00:47:02;;;;;;;10.03;5.20;;;4.50;94.50;;;;;;4961166;28;20225;-77
2020/12/20 00:49:29;;;;;;;8.30;3.93;;;4.50;94.50;;;;;;4964763;28;20186;-77
2020/12/20 00:51:58;;;;;;;7.30;4.63;;;4.50;94.50;;;;;;4954773;28;20183;-77
2020/12/20 00:54:25;;;;;;;6.00;4.33;;;4.50;94.60;;;;;;4952617;28;20233;-76
2020/12/20 00:56:50;;;;;;;8.83;5.30;;;4.50;94.60;;;;;;4955510;28;20191;-76
2020/12/20 00:59:16;;;;;;;7.87;5.47;;;4.50;94.60;;;;;;4970180;28;20201;-76
2020/12/20 01:01:42;;;;;;;7.03;4.33;;;4.50;94.70;;;;;;4969925;28;20198;-77
2020/12/20 01:04:08;;;;;;;7.00;4.90;;;4.50;94.70;;;;;;4969777;28;20198;-76
2020/12/20 01:06:34;;;;;;;7.30;5.17;;;4.50;94.70;;;;;;4959691;28;20217;-77
2020/12/20 01:09:00;;;;;;;6.13;5.17;;;4.50;94.60;;;;;;4961493;28;20205;-77
2020/12/20 01:11:26;;;;;;;7.17;4.07;;;4.50;94.60;;;;;;4966433;28;20175;-77
2020/12/20 01:13:52;;;;;;;10.00;5.57;;;4.50;94.70;;;;;;4971340;28;20181;-77
2020/12/20 01:16:20;;;;;;;13.30;5.97;;;4.50;94.70;;;;;;4971471;28;20525;-77
2020/12/20 01:18:47;;;;;;;9.47;5.87;;;4.50;94.70;;;;;;4968342;28;20174;-77
2020/12/20 01:21:13;;;;;;;10.40;5.97;;;4.50;94.70;;;;;;4971997;28;20182;-76
2020/12/20 01:23:39;;;;;;;8.10;5.70;;;4.50;94.70;;;;;;4971810;28;20171;-76
2020/12/20 01:26:04;;;;;;;11.23;5.87;;;4.50;94.80;;;;;;4960371;28;20183;-77
2020/12/20 01:28:31;;;;;;;6.67;5.50;;;4.50;94.80;;;;;;4957489;28;20217;-77
2020/12/20 01:30:57;;;;;;;10.23;5.13;;;4.40;94.90;;;;;;4964553;28;20175;-77
2020/12/20 01:33:23;;;;;;;11.87;5.90;;;4.40;94.90;;;;;;4965517;28;20714;-77
2020/12/20 01:35:49;;;;;;;8.37;5.00;;;4.40;94.80;;;;;;4963979;28;20222;-77
2020/12/20 01:38:14;;;;;;;10.20;5.17;;;4.40;94.70;;;;;;4959921;28;20202;-77
2020/12/20 01:40:40;;;;;;;8.30;5.37;;;4.40;94.70;;;;;;4957830;28;20698;-77
2020/12/20 01:43:06;;;;;;;7.17;4.67;;;4.40;94.60;;;;;;4965211;28;20225;-77
2020/12/20 01:45:31;;;;;;;10.20;5.27;;;4.40;94.70;;;;;;4958885;28;20197;-77
2020/12/20 01:47:57;;;;;;;6.87;4.17;;;4.40;94.70;;;;;;4966852;28;20256;-77
2020/12/20 01:50:23;;;;;;;6.30;3.70;;;4.40;94.70;;;;;;4965326;28;20261;-77
2020/12/20 01:52:49;;;;;;;9.13;5.07;;;4.40;94.70;;;;;;4969035;28;20265;-77
2020/12/20 01:55:19;;;;;;;7.30;5.00;;;4.40;94.70;;;;;;4968051;28;20266;-76
2020/12/20 01:57:45;;;;;;;5.43;4.83;;;4.40;94.60;;;;;;4970013;28;20170;-77
2020/12/20 02:00:11;;;;;;;6.50;4.73;;;4.40;94.60;;;;;;4954926;28;20956;-77
2020/12/20 02:02:37;;;;;;;3.97;3.30;;;4.40;94.50;;;;;;4965329;28;20227;-77
2020/12/20 02:05:03;;;;;;;6.37;4.37;;;4.40;94.50;;;;;;4965105;28;20214;-77
2020/12/20 02:07:29;;;;;;;8.43;4.23;;;4.40;94.50;;;;;;4950558;28;21025;-77
2020/12/20 02:09:55;;;;;;;5.60;4.03;;;4.40;94.50;;;;;;4962509;28;20265;-77
2020/12/20 02:12:26;;;;;;;9.13;5.20;;;4.40;94.60;;;;;;4953014;28;20241;-77
2020/12/20 02:14:52;;;;;;;8.03;4.97;;;4.40;94.50;;;;;;4957134;28;20182;-77
2020/12/20 02:17:18;;;;;;;11.20;4.97;;;4.40;94.60;;;;;;4951584;28;20331;-77
2020/12/20 02:19:44;;;;;;;8.33;4.87;;;4.40;94.50;;;;;;4965897;28;20628;-77
2020/12/20 02:22:09;;;;;;;8.87;4.97;;;4.40;94.50;;;;;;4958560;28;20220;-77
2020/12/20 02:24:35;;;;;;;9.70;5.37;;;4.40;94.50;;;;;;4960203;28;20191;-77
2020/12/20 02:27:01;;;;;;;10.03;6.33;;;4.40;94.60;;;;;;4968438;28;20198;-77
2020/12/20 02:29:26;;;;;;;14.83;6.07;;;4.40;94.50;;;;;;4966826;28;20662;-77
2020/12/20 02:31:52;;;;;;;9.60;6.13;;;4.40;94.60;;;;;;4969107;28;20185;-77
2020/12/20 02:34:18;;;;;;;8.27;5.47;;;4.40;94.60;;;;;;4968955;28;20209;-77
2020/12/20 02:36:44;;;;;;;6.33;4.90;;;4.40;94.60;;;;;;4957345;28;20191;-77
2020/12/20 02:39:10;;;;;;;7.53;5.40;;;4.50;94.60;;;;;;4955668;28;20266;-77
2020/12/20 02:41:36;;;;;;;9.67;6.50;;;4.50;94.60;;;;;;4968834;28;20269;-77
2020/12/20 02:44:02;;;;;;;10.80;5.43;;;4.50;94.60;;;;;;4967272;28;20273;-77
2020/12/20 02:46:30;;;;;;;14.20;7.30;;;4.50;94.60;;;;;;4958205;28;20191;-77
2020/12/20 02:48:56;;;;;;;12.47;6.30;;;4.40;94.60;;;;;;4961908;28;20261;-77
2020/12/20 02:51:22;;;;;;;12.67;7.23;;;4.40;94.60;;;;;;4965442;28;20187;-77
2020/12/20 02:53:48;;;;;;;14.67;6.57;;;4.40;94.60;;;;;;4952015;28;20262;-77
2020/12/20 02:56:13;;;;;;;20.30;4.93;;;4.40;94.60;;;;;;4957367;28;20254;-77
2020/12/20 02:58:40;;;;;;;10.37;5.70;;;4.40;94.70;;;;;;4951528;28;20182;-76
2020/12/20 03:01:06;;;;;;;9.27;5.70;;;4.40;94.80;;;;;;4949754;28;20202;-76
2020/12/20 03:03:32;;;;;;;11.87;6.57;;;4.20;94.90;;;;;;4965780;28;20202;-75
2020/12/20 03:05:58;;;;;;;10.67;6.07;;;4.20;95.10;;;;;;4968106;28;20580;-75
2020/12/20 03:08:23;;;;;;;12.90;6.93;;;4.10;95.20;;;;;;4969193;28;20245;-76
2020/12/20 03:10:50;;;;;;;14.23;8.03;;;4.10;95.40;;;;;;4962234;28;20678;-77
2020/12/20 03:13:16;;;;;;;15.80;8.10;;;4.10;95.50;;;;;;4956227;28;20167;-77
2020/12/20 03:15:43;;;;;;;12.27;8.30;;;4.10;95.70;;;;;;4967833;28;20677;-76
2020/12/20 03:18:09;;;;;;;15.00;7.77;;;4.10;95.70;;;;;;4954337;28;20603;-76
2020/12/20 03:20:35;;;;;;;12.40;7.07;;;4.10;95.80;;;;;;4957319;28;20246;-76
2020/12/20 03:23:01;;;;;;;14.27;7.63;;;4.10;95.80;;;;;;4968573;28;20190;-77
2020/12/20 03:25:26;;;;;;;9.17;5.87;;;4.20;95.70;;;;;;4967048;28;20618;-77
2020/12/20 03:27:53;;;;;;;15.77;7.47;;;4.20;95.60;;;;;;4968433;28;20285;-77
2020/12/20 03:30:19;;;;;;;12.53;5.60;;;4.20;95.60;;;;;;4972188;28;20193;-77
2020/12/20 03:32:45;;;;;;;8.80;6.27;;;4.20;95.60;;;;;;4970006;28;20666;-76
2020/12/20 03:35:11;;;;;;;15.37;6.30;;;4.20;95.60;;;;;;4972450;28;20213;-77
2020/12/20 03:37:37;;;;;;;10.47;7.07;;;;;;;;;;4972472;28;20261;-77
2020/12/20 03:40:04;;;;;;;12.27;6.83;;;4.30;95.50;;;;;;4963924;28;20198;-77
2020/12/20 03:42:30;;;;;;;10.67;5.60;;;;;;;;;;4954150;28;20995;-77
2020/12/20 03:44:56;;;;;;;7.13;5.33;;;;;;;;;;4966645;28;20831;-77
2020/12/20 03:47:22;;;;;;;10.73;6.43;;;4.20;95.50;;;;;;4970838;28;20202;-76
2020/12/20 03:49:48;;;;;;;11.27;5.80;;;;;;;;;;4965453;28;20192;-76
2020/12/20 03:52:13;;;;;;;11.60;6.07;;;4.20;95.80;;;;;;4970486;28;20182;-76
2020/12/20 03:54:40;;;;;;;14.73;6.80;;;;;;;;;;4957917;28;20183;-77
2020/12/20 03:57:05;;;;;;;13.87;6.47;;;4.10;95.80;;;;;;4967743;28;20182;-76
2020/12/20 03:59:31;;;;;;;12.20;6.23;;;4.10;96.00;;;;;;4963323;28;20186;-76
2020/12/20 04:01:57;;;;;;;11.23;6.00;;;4.10;96.00;;;;;;4973409;28;20190;-77
2020/12/20 04:04:22;;;;;;;13.13;7.00;;;4.10;96.10;;;;;;4971789;28;20236;-76
2020/12/20 04:06:48;;;;;;;14.87;7.23;;;4.20;96.10;;;;;;4969471;28;20241;-76
2020/12/20 04:09:14;;;;;;;13.97;6.93;;;4.20;96.10;;;;;;4965104;28;20734;-77
2020/12/20 04:11:39;;;;;;;9.73;6.87;;;4.20;96.10;;;;;;4957844;28;21176;-77
2020/12/20 04:14:05;;;;;;;9.77;6.03;;;4.20;96.10;;;;;;4965489;28;20184;-77
2020/12/20 04:16:31;;;;;;;13.07;5.70;;;4.20;96.00;;;;;;4959216;28;20257;-77
2020/12/20 04:18:56;;;;;;;13.27;5.97;;;4.20;96.00;;;;;;4961877;28;20573;-76
2020/12/20 04:21:22;;;;;;;11.23;6.67;;;4.30;95.80;;;;;;4972043;28;20179;-76
2020/12/20 04:23:47;;;;;;;12.40;7.10;;;4.30;95.80;;;;;;4971684;28;20174;-76
2020/12/20 04:26:13;;;;;;;18.00;7.30;;;4.30;95.80;;;;;;4966501;28;20186;-75
2020/12/20 04:28:39;;;;;;;15.00;7.63;;;4.30;95.70;;;;;;4960205;28;21001;-76
2020/12/20 04:31:05;;;;;;;14.83;7.57;;;4.40;95.70;;;;;;4968051;28;20190;-76
2020/12/20 04:33:30;;;;;;;22.53;8.30;;;4.40;95.60;;;;;;4970771;28;20281;-76
2020/12/20 04:35:56;;;;;;;13.53;6.77;;;4.40;95.60;;;;;;4965473;28;20206;-77
2020/12/20 04:38:22;;;;;;;14.47;7.27;;;4.40;95.50;;;;;;4955108;28;20217;-75
2020/12/20 04:40:48;;;;;;;10.07;5.97;;;4.30;95.50;;;;;;4955606;28;20199;-77
2020/12/20 04:43:14;;;;;;;20.50;7.83;;;4.20;95.80;;;;;;4971206;28;20192;-75
2020/12/20 04:45:40;;;;;;;9.63;5.57;;;4.20;95.90;;;;;;4967690;28;20182;-76
2020/12/20 04:48:06;;;;;;;13.53;6.23;;;4.20;95.90;;;;;;4953500;28;20310;-76
2020/12/20 04:50:32;;;;;;;10.17;6.83;;;4.10;96.10;;;;;;4963771;28;20952;-76
2020/12/20 04:53:00;;;;;;;8.37;6.03;;;4.10;96.30;;;;;;4953394;28;20202;-77
2020/12/20 04:55:26;;;;;;;13.20;6.07;;;4.10;96.40;;;;;;4965599;28;20238;-76
2020/12/20 04:57:53;;;;;;;12.63;6.63;;;4.00;96.50;;;;;;4952783;28;20189;-76
2020/12/20 05:00:20;;;;;;;16.60;7.30;;;4.00;96.60;;;;;;4966180;28;20189;-76
2020/12/20 05:02:47;;;;;;;8.33;5.70;;;4.00;96.60;;;;;;4969235;28;20639;-76
2020/12/20 05:05:13;;;;;;;14.70;7.03;;;4.00;96.80;;;;;;4961742;28;20562;-75
2020/12/20 05:07:41;;;;;;;14.27;6.90;;;4.00;97.00;;;;;;4950537;28;20761;-75
2020/12/20 05:10:08;;;;;;;20.63;6.70;;;4.00;97.00;;;;;;4954168;28;20182;-76
2020/12/20 05:12:35;;;;;;;12.97;6.47;;;4.00;97.00;;;;;;4951429;28;20199;-77
2020/12/20 05:15:21;;;;;;;15.73;6.60;;;4.00;97.00;;;;;;4951690;28;20202;-76
2020/12/20 05:17:47;;;;;;;12.20;6.13;;;4.00;97.00;;;;;;4966392;28;20190;-76
2020/12/20 05:20:34;;;;;;;21.50;7.70;;;4.00;97.00;;;;;;4961297;28;20198;-77
2020/12/20 05:23:00;;;;;;;12.57;5.60;;;4.00;97.00;;;;;;4951265;28;20167;-76
2020/12/20 05:25:26;;;;;;;11.90;6.20;;;4.00;97.10;;;;;;4952041;28;20197;-76
2020/12/20 05:28:03;;;;;;;10.07;6.17;;;4.00;96.90;;;;;;4983575;28;20857;-76
2020/12/20 05:30:28;;;;;;;15.83;6.57;;;4.00;97.00;;;;;;4968428;28;20177;-76
2020/12/20 05:32:54;;;;;;;10.00;5.83;;;4.00;97.10;;;;;;4970559;28;20730;-76
2020/12/20 05:35:20;;;;;;;14.57;6.07;;;4.00;97.20;;;;;;4966415;28;20191;-76
2020/12/20 05:37:46;;;;;;;14.23;6.53;;;4.00;97.10;;;;;;4963438;28;20191;-76
2020/12/20 05:40:28;;;;;;;16.93;7.57;;;3.90;97.20;;;;;;4966157;28;20217;-76
2020/12/20 05:42:55;;;;;;;8.37;5.20;;;3.90;97.20;;;;;;4951729;28;20162;-76
2020/12/20 05:45:28;;;;;;;12.93;6.50;;;3.90;97.20;;;;;;4963288;28;20739;-76
2020/12/20 05:47:54;;;;;;;8.97;5.03;;;3.90;97.30;;;;;;4960612;28;20563;-76
2020/12/20 05:50:20;;;;;;;17.87;6.17;;;3.90;97.20;;;;;;4965757;28;20701;-76
2020/12/20 05:53:00;;;;;;;11.63;6.53;;;4.00;97.20;;;;;;4956116;28;20217;-76
2020/12/20 05:55:34;;;;;;;9.43;6.33;;;4.00;97.20;;;;;;4967785;28;20175;-76
2020/12/20 05:58:30;;;;;;;13.80;5.93;;;4.00;97.10;;;;;;4969724;28;20190;-77
2020/12/20 06:00:57;;;;;;;10.73;6.80;;;4.10;96.90;;;;;;4960070;28;20197;-75
2020/12/20 06:03:23;;;;;;;14.77;6.23;;;4.10;97.00;;;;;;4950846;28;20277;-77
2020/12/20 06:05:49;;;;;;;11.87;5.13;;;4.10;96.80;;;;;;4957566;28;20707;-76
2020/12/20 06:08:20;;;;;;;12.73;6.73;;;4.10;96.80;;;;;;4967367;28;20203;-76
2020/12/20 06:10:50;;;;;;;12.30;6.57;;;4.20;96.80;;;;;;4967581;28;20175;-76
2020/12/20 06:13:18;;;;;;;14.90;5.73;;;4.20;96.60;;;;;;4969086;28;20186;-76
2020/12/20 06:15:44;;;;;;;11.33;6.00;;;4.20;96.60;;;;;;4964439;28;20220;-76
2020/12/20 06:18:21;;;;;;;11.13;6.13;;;4.20;96.60;;;;;;4964650;28;20191;-76
2020/12/20 06:20:53;;;;;;;13.07;6.10;;;4.20;96.70;;;;;;4968004;28;20185;-76
2020/12/20 06:23:23;;;;;;;10.53;4.60;;;4.20;96.50;;;;;;4969204;28;20213;-76
2020/12/20 06:25:50;;;;;;;11.57;6.03;;;4.20;96.60;;;;;;4957616;28;20202;-76
2020/12/20 06:28:21;;;;;;;9.97;5.77;;;4.20;96.60;;;;;;4968435;28;20261;-77
2020/12/20 06:30:48;;;;;;;10.67;5.43;;;4.10;96.60;;;;;;4968913;28;20293;-77
2020/12/20 06:33:43;;;;;;;9.20;5.70;;;4.10;96.70;;;;;;4968538;28;20221;-76
2020/12/20 06:36:11;;;;;;;10.87;6.03;;;4.10;96.80;;;;;;4907730;29;20685;-77
2020/12/20 06:38:37;;;;;;;13.57;5.73;;;4.20;96.90;;;;;;4885661;29;20201;-77
2020/12/20 06:41:03;;;;;;;12.67;6.40;;;4.10;96.70;;;;;;4899671;29;20200;-76
2020/12/20 06:43:34;;;;;;;13.60;5.53;;;4.10;96.60;;;;;;4909402;29;20831;-76
2020/12/20 06:46:01;;;;;;;11.07;5.30;;;4.10;96.50;;;;;;4904272;29;20269;-75
2020/12/20 06:48:38;;;;;;;9.03;5.53;;;4.10;96.70;;;;;;4885620;29;20680;-77
2020/12/20 06:51:08;;;;;;;14.07;6.80;;;4.00;96.90;;;;;;4897149;29;20185;-76
2020/12/20 06:53:46;;;;;;;6.13;4.50;;;4.00;96.80;;;;;;4889781;29;20259;-76
2020/12/20 06:56:18;;;;;;;10.10;5.37;;;4.00;96.90;;;;;;4882249;29;20185;-76
2020/12/20 06:58:44;;;;;;;14.20;5.57;;;3.90;96.90;;;;;;4880972;29;20195;-76
2020/12/20 07:01:10;;;;;;;11.27;5.57;;;3.90;97.00;;;;;;4886358;29;20216;-76
2020/12/20 07:03:38;;;;;;;9.23;4.93;;;3.90;97.20;;;;;;4873823;29;20196;-77
2020/12/20 07:06:07;;;;;;;10.47;5.33;;;3.90;97.10;;;;;;4877486;29;20228;-77
2020/12/20 07:08:35;;;;;;;10.00;5.47;;;3.90;97.10;;;;;;4896765;29;20220;-76
2020/12/20 07:11:24;;;;;;;15.63;5.70;;;3.90;97.20;;;;;;4900190;29;20229;-78
2020/12/20 07:13:51;;;;;;;9.03;5.10;;;3.90;97.10;;;;;;4943703;28;20194;-76
2020/12/20 07:16:22;;;;;;;10.60;6.33;;;4.00;97.10;;;;;;4960844;28;20174;-73
2020/12/20 07:18:50;;;;;;;12.13;6.10;;;4.00;97.00;;;;;;4957423;28;20278;-73
2020/12/20 07:21:19;;;;;;;7.80;5.40;;;4.00;97.10;;;;;;4953942;28;20334;-74
2020/12/20 07:23:52;;;;;;;6.50;4.87;;;4.10;97.00;;;;;;4966734;28;20186;-74
2020/12/20 07:26:19;;;;;;;8.53;5.00;;;4.10;97.00;;;;;;4959782;28;21073;-74
2020/12/20 07:28:45;;;;;;;11.27;6.50;;;4.20;97.00;;;;;;4956623;28;20206;-74
2020/12/20 07:31:19;;;;;;;13.17;5.93;;;4.20;97.00;;;;;;4961708;28;20198;-85
2020/12/20 07:33:45;;;;;;;6.87;5.47;;;4.20;97.00;;;;;;4969043;28;20182;-84
2020/12/20 07:36:13;;;;;;;12.93;5.10;;;4.30;96.90;;;;;;4966517;28;20214;-84
2020/12/20 07:38:39;;;;;;;6.17;3.97;;;4.40;96.80;;;;;;4953180;28;20324;-85
2020/12/20 07:41:11;;;;;;;9.47;4.90;;;4.40;96.70;;;;;;4957359;28;20315;-84
2020/12/20 07:43:37;;;;;;;9.40;5.03;;;4.50;96.50;;;;;;4957262;28;20249;-84
2020/12/20 07:46:05;;;;;;;5.43;4.70;;;4.50;96.50;;;;;;4969920;28;20229;-84
2020/12/20 07:48:33;;;;;;;13.10;6.27;;;4.60;96.40;;;;;;4969904;28;20202;-86
2020/12/20 07:51:16;;;;;;;7.73;4.87;;;4.60;96.30;;;;;;4970006;28;20208;-82
2020/12/20 07:53:52;;;;;;;15.37;6.17;;;4.70;96.10;;;;;;4953904;28;20551;-83
2020/12/20 07:56:32;;;;;;;10.57;5.30;;;4.70;96.00;;;;;;4954558;28;20644;-83
2020/12/20 07:59:00;;;;;;;10.90;4.53;;;4.80;95.80;;;;;;4968747;28;20190;-79
2020/12/20 08:01:26;;;;;;;14.47;5.67;;;4.80;95.80;;;;;;4966171;28;20186;-89
2020/12/20 08:04:02;;;;;;;10.17;6.00;;;4.80;95.80;;;;;;4965817;28;20198;-78
2020/12/20 08:06:28;;;;;;;12.70;5.27;;;4.90;95.40;;;;;;4968511;28;20210;-79
2020/12/20 08:09:19;;;;;;;8.93;6.03;;;4.90;95.40;;;;;;4966788;28;20242;-76
2020/12/20 08:11:46;;;;;;;7.17;5.37;;;4.90;95.30;;;;;;4966632;28;20205;-79
2020/12/20 08:14:14;;;;;;;13.90;6.93;;;4.90;95.30;;;;;;4967503;28;20639;-79
2020/12/20 08:16:42;;;;;;;13.73;6.40;;;4.90;95.30;;;;;;4969780;28;20191;-77
2020/12/20 08:19:29;;;;;;;10.40;6.83;;;5.00;95.00;;;;;;4972483;28;20185;-80
2020/12/20 08:22:08;;;;;;;10.03;6.37;;;5.00;95.10;;;;;;4973585;28;20553;-82
2020/12/20 08:24:38;;;;;;;12.80;7.27;;;5.00;95.00;;;;;;4972175;28;20905;-83
2020/12/20 08:27:33;;;;;;;11.50;5.87;;;5.00;94.70;;;;;;4974030;28;20302;-81
2020/12/20 08:30:02;;;;;;;7.60;6.10;;;5.00;94.80;;;;;;4932803;29;20708;-79
2020/12/20 08:32:42;;;;;;;14.67;6.30;;;5.00;94.80;;;;;;4929688;29;20255;-80
2020/12/20 08:35:12;;;;;;;10.03;5.40;;;5.00;94.20;;;;;;4910574;29;20201;-77
2020/12/20 08:37:38;;;;;;;10.60;6.33;;;4.90;94.40;;;;;;4926953;29;20195;-77
2020/12/20 08:40:09;;;;;;;9.30;5.43;;;4.90;94.40;;;;;;4911732;29;20199;-77
2020/12/20 08:42:34;;;;;;;7.93;6.20;;;4.90;94.60;;;;;;4927749;29;20239;-77
2020/12/20 08:45:11;;;;;;;13.10;6.63;;;4.90;94.60;;;;;;4928590;29;20211;-76
2020/12/20 08:47:37;;;;;;;10.20;6.10;;;4.90;94.60;;;;;;4931849;29;20355;-78
2020/12/20 08:50:03;;;;;;;16.33;7.43;;;5.00;94.60;;;;;;4929244;29;20278;-78
2020/12/20 08:52:30;;;;;;;9.60;6.80;;;5.00;94.60;;;;;;4926017;29;20191;-82
2020/12/20 08:54:57;;;;;;;11.47;7.37;;;5.00;94.60;;;;;;4930678;29;20191;-82
2020/12/20 08:57:30;;;;;;;9.77;6.20;;;5.00;94.70;;;;;;4909881;29;20199;-84
2020/12/20 09:00:10;;;;;;;11.33;6.77;;;5.00;94.60;;;;;;4908298;29;20285;-83
2020/12/20 09:02:36;;;;;;;11.27;6.83;;;5.10;94.70;;;;;;4931829;29;20284;-84
2020/12/20 09:05:11;;;;;;;12.60;6.67;;;5.10;94.70;;;;;;4932921;29;20275;-81
2020/12/20 09:07:52;;;;;;;10.73;6.43;;;5.10;94.70;;;;;;4973197;28;20790;-83
2020/12/20 09:10:26;;;;;;;14.67;6.90;;;5.20;94.60;;;;;;4971289;28;20258;-85
2020/12/20 09:12:55;;;;;;;14.67;6.50;;;5.20;94.40;;;;;;4973048;28;20178;-78
2020/12/20 09:15:30;;;;;;;15.17;7.80;;;5.20;94.30;;;;;;4968703;28;20243;-79
2020/12/20 09:18:01;;;;;;;9.57;5.23;;;5.30;94.20;;;;;;4953619;29;20236;-86
2020/12/20 09:20:28;;;;;;;15.73;6.90;;;5.30;94.10;;;;;;4956398;28;20698;-77
2020/12/20 09:22:56;;;;;;;11.67;7.17;;;5.30;94.00;;;;;;4971309;28;20190;-76
2020/12/20 09:25:39;;;;;;;9.60;5.93;;;5.40;93.70;;;;;;4970977;28;20741;-75
2020/12/20 09:28:08;;;;;;;19.80;8.90;;;5.40;93.20;;;;;;4967841;28;20198;-77
2020/12/20 09:30:43;;;;;;;14.30;7.03;;;5.30;93.10;;;;;;4965406;28;20178;-77
2020/12/20 09:33:29;;;;;;;10.00;6.00;;;5.30;92.90;;;;;;4960707;28;20223;-77
2020/12/20 09:36:05;;;;;;;8.20;5.43;;;5.20;92.80;;;;;;4964307;28;20174;-79
2020/12/20 09:38:41;;;;;;;11.17;6.93;;;5.10;93.30;;;;;;4966517;28;20281;-77
2020/12/20 09:41:11;;;;;;;13.40;6.60;;;5.10;93.30;;;;;;4981471;28;20547;-75
2020/12/20 09:43:37;;;;;;;13.40;6.30;;;5.10;93.00;;;;;;4960994;28;20179;-74
2020/12/20 09:46:03;;;;;;;9.60;5.73;;;5.00;93.10;;;;;;4963488;28;20671;-75
2020/12/20 09:48:30;;;;;;;12.27;7.13;;;5.00;93.40;;;;;;4967411;28;20218;-77
2020/12/20 09:50:56;;;;;;;10.10;6.37;;;5.00;93.70;;;;;;4968727;28;20178;-77
2020/12/20 09:53:22;;;;;;;12.53;7.33;;;5.00;93.80;;;;;;4970555;28;20201;-78
2020/12/20 09:55:48;;;;;;;9.20;5.70;;;5.00;94.10;;;;;;4971239;28;20171;-79
2020/12/20 09:58:14;;;;;;;10.50;6.73;;;5.10;94.10;;;;;;4967527;28;20186;-79
2020/12/20 10:00:41;;;;;;;12.80;7.00;;;5.10;94.10;;;;;;4967572;28;20214;-80
2020/12/20 10:03:07;;;;;;;14.63;6.93;;;5.20;93.80;;;;;;4966386;28;20198;-76
2020/12/20 10:05:33;;;;;;;10.43;6.97;;;5.20;93.70;;;;;;4966601;28;20190;-75
2020/12/20 10:07:59;;;;;;;15.80;6.33;;;5.20;93.60;;;;;;4967694;28;20411;-76
2020/12/20 10:10:25;;;;;;;11.73;6.67;;;5.30;93.30;;;;;;4966509;28;20636;-76
2020/12/20 10:12:51;;;;;;;15.13;7.43;;;5.30;93.00;;;;;;4964737;28;20285;-76
2020/12/20 10:15:17;;;;;;;13.17;7.17;;;5.30;92.60;;;;;;4964727;28;20265;-76
2020/12/20 10:17:44;;;;;;;13.53;6.47;;;5.30;92.00;;;;;;4987326;28;20232;-76
2020/12/20 10:20:10;;;;;;;8.30;5.70;;;5.30;92.40;;;;;;4965292;28;20186;-76
2020/12/20 10:22:35;;;;;;;10.27;6.43;;;5.20;91.80;;;;;;4964896;28;20661;-76
2020/12/20 10:25:01;;;;;;;12.63;6.33;;;5.20;91.90;;;;;;4964699;28;20289;-76
2020/12/20 10:27:27;;;;;;;13.00;6.73;;;5.10;92.20;;;;;;4966731;28;20209;-76
2020/12/20 10:29:52;;;;;;;11.40;6.97;;;5.10;92.80;;;;;;4981993;28;20273;-76
2020/12/20 10:32:18;;;;;;;12.30;6.50;;;5.10;92.90;;;;;;4967237;28;20953;-76
2020/12/20 10:34:44;;;;;;;17.27;7.07;;;5.20;93.10;;;;;;4967656;28;20188;-76
2020/12/20 10:37:09;;;;;;;12.23;6.77;;;5.20;92.50;;;;;;4967131;28;20198;-76
2020/12/20 10:39:35;;;;;;;9.77;6.83;;;5.20;91.90;;;;;;4967374;28;20182;-75
2020/12/20 10:42:01;;;;;;;11.83;6.27;;;5.10;91.80;;;;;;4966968;28;20197;-77
2020/12/20 10:44:28;;;;;;;9.63;6.00;;;5.00;92.10;;;;;;4967596;28;20244;-76
2020/12/20 10:46:54;;;;;;;11.47;6.13;;;4.80;92.30;;;;;;4966893;28;20194;-76
2020/12/20 10:49:21;;;;;;;10.80;5.67;;;4.70;92.60;;;;;;4966314;28;20655;-76
2020/12/20 10:51:54;;;;;;;14.27;6.33;;;4.70;93.00;;;;;;4955140;28;20190;-76
2020/12/20 10:54:29;;;;;;;11.17;6.47;;;4.80;93.20;;;;;;4965781;28;20197;-76
2020/12/20 10:57:02;;;;;;;11.20;6.93;;;4.80;93.40;;;;;;4961951;28;20170;-76
2020/12/20 10:59:30;;;;;;;8.70;5.40;;;4.80;92.60;;;;;;4966859;28;20185;-75
2020/12/20 11:01:56;;;;;;;9.13;6.10;;;4.70;92.40;;;;;;4965892;28;20182;-75
2020/12/20 11:04:23;;;;;;;9.00;6.37;;;4.70;92.60;;;;;;4966938;28;20202;-75
2020/12/20 11:06:49;;;;;;;8.87;5.70;;;4.60;93.00;;;;;;4966890;28;20209;-77
2020/12/20 11:09:15;;;;;;;11.47;6.10;;;4.60;93.10;;;;;;4963557;28;20639;-76
2020/12/20 11:11:43;;;;;;;8.70;6.67;;;4.60;93.30;;;;;;4967327;28;20236;-76
2020/12/20 11:14:09;;;;;;;11.70;5.97;;;4.70;93.50;;;;;;4966532;28;20277;-76
2020/12/20 11:16:35;;;;;;;11.37;6.37;;;4.70;93.40;;;;;;4967306;28;20317;-77
2020/12/20 11:19:01;;;;;;;12.33;5.97;;;4.80;93.20;;;;;;4966755;28;20195;-87
2020/12/20 11:21:26;;;;;;;8.30;5.47;;;4.80;93.10;;;;;;4966115;28;20226;-77
2020/12/20 11:23:52;;;;;;;9.03;5.23;;;4.80;92.50;;;;;;4970151;28;20248;-80
2020/12/20 11:26:20;;;;;;;9.23;7.30;;;4.80;92.30;;;;;;4985221;28;20197;-79
2020/12/20 11:28:48;;;;;;;11.77;7.07;;;4.80;92.10;;;;;;4965143;28;20385;-80
2020/12/20 11:31:17;;;;;;;15.43;5.50;;;4.70;92.60;;;;;;4959055;28;20245;-80
2020/12/20 11:33:43;;;;;;;7.27;5.43;;;4.60;92.50;;;;;;4952248;29;20179;-80
2020/12/20 11:36:14;;;;;;;9.40;6.07;;;4.50;92.80;;;;;;4959191;28;20186;-78
2020/12/20 11:38:39;;;;;;;12.40;6.83;;;4.50;93.00;;;;;;4964245;28;20697;-78
2020/12/20 11:41:05;;;;;;;11.70;5.97;;;4.50;93.20;;;;;;4969315;28;20261;-78
2020/12/20 11:43:31;;;;;;;10.57;6.03;;;4.50;93.30;;;;;;4966972;28;20182;-78
2020/12/20 11:45:58;;;;;;;8.90;5.37;;;4.60;93.30;;;;;;4966891;28;20201;-79
2020/12/20 11:48:24;;;;;;;8.47;5.87;;;4.50;93.40;;;;;;4966279;28;20698;-79
2020/12/20 11:50:50;;;;;;;7.70;5.87;;;4.50;93.20;;;;;;4970015;28;20194;-81
2020/12/20 11:53:16;;;;;;;7.50;5.70;;;4.50;93.30;;;;;;4976215;28;20170;-85
2020/12/20 11:55:42;;;;;;;9.17;5.40;;;4.40;93.00;;;;;;4975613;28;20182;-86
2020/12/20 11:58:12;;;;;;;7.37;5.40;;;4.40;93.40;;;;;;4977045;28;20270;-88
2020/12/20 12:00:41;;;;;;;7.53;5.40;;;4.40;93.10;;;;;;4964665;28;20671;-84
2020/12/20 12:03:08;;;;;;;9.50;5.37;;;4.40;93.30;;;;;;4974662;28;20190;-86
2020/12/20 12:05:39;;;;;;;10.37;5.83;;;4.40;93.50;;;;;;4975565;28;20181;-86
2020/12/20 12:08:08;;;;;;;11.83;6.87;;;4.40;93.50;;;;;;4964670;28;20199;-83
2020/12/20 12:10:35;;;;;;;11.07;7.07;;;4.50;93.80;;;;;;4973290;28;20186;-81
2020/12/20 12:13:02;;;;;;;12.03;7.00;;;4.60;93.80;;;;;;4975824;28;20253;-86
2020/12/20 12:15:28;;;;;;;7.00;5.27;;;4.60;93.80;;;;;;4972391;28;20186;-84
2020/12/20 12:17:54;;;;;;;12.83;7.17;;;4.70;93.70;;;;;;4973341;28;20245;-77
2020/12/20 12:20:20;;;;;;;9.00;5.30;;;4.80;93.50;;;;;;4972931;28;20192;-80
2020/12/20 12:22:47;;;;;;;10.70;6.87;;;4.90;93.30;;;;;;4972850;28;20194;-79
2020/12/20 12:25:13;;;;;;;9.67;6.30;;;4.90;92.60;;;;;;4973572;28;20175;-80
2020/12/20 12:27:39;;;;;;;10.83;6.07;;;4.80;92.40;;;;;;4972795;28;20194;-79
2020/12/20 12:30:05;;;;;;;6.07;5.07;;;4.80;92.60;;;;;;4973092;28;20704;-80
2020/12/20 12:32:30;;;;;;;12.97;6.33;;;4.80;92.60;;;;;;4973075;28;20225;-80
2020/12/20 12:34:56;;;;;;;7.40;5.10;;;4.80;92.60;;;;;;4972932;28;20202;-80
2020/12/20 12:37:22;;;;;;;6.53;5.03;;;4.70;92.40;;;;;;4967823;28;20953;-80
2020/12/20 12:39:48;;;;;;;9.80;5.87;;;4.70;92.50;;;;;;4954869;28;20183;-79
2020/12/20 12:42:14;;;;;;;10.00;6.20;;;4.60;92.50;;;;;;4954128;28;20921;-80
2020/12/20 12:44:42;;;;;;;11.70;6.27;;;4.50;92.70;;;;;;4964846;28;20213;-79
2020/12/20 12:47:11;;;;;;;11.30;7.13;;;4.50;93.00;;;;;;4972131;28;20237;-78
2020/12/20 12:49:38;;;;;;;13.10;7.33;;;4.60;93.20;;;;;;4961451;28;20178;-79
2020/12/20 12:52:04;;;;;;;9.13;6.57;;;4.60;93.40;;;;;;4962666;28;20174;-78
2020/12/20 12:54:30;;;;;;;9.97;5.83;;;4.70;93.50;;;;;;4967140;28;20237;-78
2020/12/20 12:56:59;;;;;;;9.57;6.17;;;4.70;93.10;;;;;;4957647;28;20912;-79